createdAt,value
2017-10-04T00:01:30.582Z,86.20
2017-10-04T00:03:59.974Z,86.20
2017-10-04T00:06:28.226Z,86.20
2017-10-04T00:08:56.498Z,86.40
2017-10-04T00:11:25.638Z,86.20
2017-10-04T00:13:53.909Z,86.90
2017-10-04T00:16:22.941Z,86.70
2017-10-04T00:18:51.176Z,86.70
2017-10-04T00:21:20.214Z,87.10
2017-10-04T00:23:48.445Z,86.40
2017-10-04T00:26:16.721Z,86.70
2017-10-04T00:28:45.787Z,86.70
2017-10-04T00:31:14.014Z,86.70
2017-10-04T00:33:43.106Z,87.00
2017-10-04T00:36:11.390Z,87.50
2017-10-04T00:38:39.691Z,87.30
2017-10-04T00:41:07.926Z,87.20
2017-10-04T00:43:36.977Z,86.80
2017-10-04T00:46:05.258Z,86.80
2017-10-04T00:48:33.534Z,86.70
2017-10-04T00:51:01.799Z,86.40
2017-10-04T00:53:30.058Z,86.30
2017-10-04T00:55:58.332Z,86.20
2017-10-04T00:58:26.602Z,86.40
2017-10-04T01:00:54.932Z,86.40
2017-10-04T01:03:23.213Z,86.20
2017-10-04T01:05:51.474Z,86.40
2017-10-04T01:08:19.755Z,86.70
2017-10-04T01:10:48.871Z,86.70
2017-10-04T01:13:17.086Z,86.80
2017-10-04T01:15:46.098Z,86.10
2017-10-04T01:18:15.214Z,86.10
2017-10-04T01:20:43.490Z,86.20
2017-10-04T01:23:11.753Z,86.70
2017-10-04T01:25:40.001Z,87.00
2017-10-04T01:28:09.018Z,87.20
2017-10-04T01:30:37.285Z,87.10
2017-10-04T01:33:05.825Z,87.20
2017-10-04T01:35:34.078Z,87.50
2017-10-04T01:38:02.318Z,87.60
2017-10-04T01:40:31.476Z,87.40
2017-10-04T01:42:59.813Z,87.40
2017-10-04T01:45:28.078Z,87.10
2017-10-04T01:47:57.091Z,87.70
2017-10-04T01:50:25.393Z,87.70
2017-10-04T01:52:53.635Z,87.60
2017-10-04T01:55:21.879Z,87.60
2017-10-04T01:57:50.226Z,87.60
2017-10-04T02:00:18.443Z,87.20
2017-10-04T02:02:48.186Z,87.00
2017-10-04T02:05:16.465Z,86.90
2017-10-04T02:07:44.746Z,86.90
2017-10-04T02:10:13.003Z,86.70
2017-10-04T02:12:42.044Z,86.90
2017-10-04T02:15:10.345Z,86.90
2017-10-04T02:17:38.587Z,86.70
2017-10-04T02:20:06.836Z,86.60
2017-10-04T02:22:35.114Z,86.70
2017-10-04T02:25:03.388Z,86.60
2017-10-04T02:27:32.424Z,86.50
2017-10-04T02:30:00.674Z,86.30
2017-10-04T02:32:28.946Z,86.60
2017-10-04T02:34:57.226Z,86.50
2017-10-04T02:37:25.500Z,86.50
2017-10-04T02:39:53.741Z,86.20
2017-10-04T02:42:22.038Z,86.10
2017-10-04T02:44:51.064Z,86.00
2017-10-04T02:47:19.317Z,86.00
2017-10-04T02:49:47.573Z,86.10
2017-10-04T02:52:16.619Z,86.70
2017-10-04T02:54:44.835Z,86.20
2017-10-04T02:57:13.104Z,86.60
2017-10-04T02:59:41.346Z,86.70
2017-10-04T03:02:09.634Z,86.70
2017-10-04T03:04:37.899Z,86.80
2017-10-04T03:07:06.142Z,86.50
2017-10-04T03:09:35.221Z,86.70
2017-10-04T03:12:03.454Z,86.70
2017-10-04T03:14:31.682Z,86.40
2017-10-04T03:17:00.736Z,85.90
2017-10-04T03:19:28.974Z,85.90
2017-10-04T03:21:57.986Z,85.80
2017-10-04T03:24:26.319Z,85.80
2017-10-04T03:26:54.554Z,85.80
2017-10-04T03:29:23.577Z,86.20
2017-10-04T03:31:51.864Z,86.10
2017-10-04T03:34:21.049Z,86.20
2017-10-04T03:36:49.299Z,85.90
2017-10-04T03:39:17.590Z,85.80
2017-10-04T03:41:45.839Z,85.90
2017-10-04T03:44:14.094Z,86.00
2017-10-04T03:46:43.099Z,86.70
2017-10-04T03:49:11.351Z,86.00
2017-10-04T03:51:40.371Z,85.80
2017-10-04T03:54:08.639Z,85.80
2017-10-04T03:56:37.654Z,85.60
2017-10-04T03:59:05.907Z,85.60
2017-10-04T04:01:34.914Z,86.00
2017-10-04T04:04:03.197Z,86.00
2017-10-04T04:06:31.452Z,85.80
2017-10-04T04:09:00.506Z,86.30
2017-10-04T04:11:28.762Z,86.30
2017-10-04T04:13:57.022Z,86.10
2017-10-04T04:16:25.271Z,86.10
2017-10-04T04:18:54.292Z,86.10
2017-10-04T04:21:22.538Z,86.00
2017-10-04T04:23:52.235Z,86.10
2017-10-04T04:26:20.486Z,86.10
2017-10-04T04:28:48.757Z,85.90
2017-10-04T04:31:17.970Z,85.80
2017-10-04T04:33:46.218Z,86.00
2017-10-04T04:36:14.470Z,86.00
2017-10-04T04:38:55.425Z,85.90
2017-10-04T04:41:23.695Z,85.90
2017-10-04T04:43:51.924Z,85.80
2017-10-04T04:46:20.193Z,85.70
2017-10-04T04:48:48.498Z,86.00
2017-10-04T04:51:16.760Z,85.70
2017-10-04T04:53:45.012Z,86.00
2017-10-04T04:56:14.024Z,85.50
2017-10-04T04:58:42.267Z,85.50
2017-10-04T05:01:10.962Z,85.50
2017-10-04T05:03:39.986Z,85.80
2017-10-04T05:06:08.274Z,85.80
2017-10-04T05:08:36.514Z,85.80
2017-10-04T05:11:04.738Z,85.60
2017-10-04T05:13:33.006Z,85.80
2017-10-04T05:16:01.274Z,85.50
2017-10-04T05:18:29.524Z,85.80
2017-10-04T05:20:58.574Z,86.10
2017-10-04T05:23:26.842Z,86.10
2017-10-04T05:25:55.084Z,85.90
2017-10-04T05:28:24.130Z,85.80
2017-10-04T05:30:52.381Z,85.80
2017-10-04T05:33:21.550Z,85.70
2017-10-04T05:35:49.831Z,85.40
2017-10-04T05:38:18.125Z,85.70
2017-10-04T05:40:46.371Z,85.80
2017-10-04T05:43:15.408Z,85.90
2017-10-04T05:45:43.672Z,85.70
2017-10-04T05:48:11.939Z,85.60
2017-10-04T05:50:40.599Z,86.50
2017-10-04T05:53:09.662Z,86.50
2017-10-04T05:55:37.935Z,86.20
2017-10-04T05:58:06.182Z,86.00
2017-10-04T06:00:34.448Z,86.40
2017-10-04T06:03:02.701Z,86.20
2017-10-04T06:05:31.022Z,85.90
2017-10-04T06:07:59.302Z,86.00
2017-10-04T06:10:27.539Z,86.40
2017-10-04T06:12:56.547Z,86.30
2017-10-04T06:15:24.809Z,86.20
2017-10-04T06:17:53.043Z,85.80
2017-10-04T06:20:21.298Z,85.90
2017-10-04T06:22:49.607Z,85.90
2017-10-04T06:25:17.843Z,86.10
2017-10-04T06:27:46.174Z,85.80
2017-10-04T06:30:14.464Z,86.00
2017-10-04T06:32:42.714Z,85.80
2017-10-04T06:35:10.963Z,86.30
2017-10-04T06:37:39.233Z,86.10
2017-10-04T06:40:07.598Z,86.20
2017-10-04T06:42:35.961Z,86.60
2017-10-04T06:45:04.924Z,86.20
2017-10-04T06:47:33.168Z,86.10
2017-10-04T06:50:02.611Z,85.40
2017-10-04T06:52:31.686Z,85.30
2017-10-04T06:55:00.007Z,85.30
2017-10-04T06:57:28.246Z,85.60
2017-10-04T06:59:56.502Z,85.50
2017-10-04T07:02:24.745Z,85.60
2017-10-04T07:04:53.754Z,84.90
2017-10-04T07:07:22.914Z,84.90
2017-10-04T07:09:51.188Z,84.50
2017-10-04T07:12:19.457Z,84.10
2017-10-04T07:14:47.720Z,84.30
2017-10-04T07:17:15.965Z,84.30
2017-10-04T07:19:44.211Z,84.40
2017-10-04T07:22:13.254Z,84.60
2017-10-04T07:24:41.511Z,84.20
2017-10-04T07:27:11.402Z,84.70
2017-10-04T07:29:39.652Z,84.70
2017-10-04T07:32:07.931Z,84.80
2017-10-04T07:34:36.174Z,84.60
2017-10-04T07:37:04.462Z,84.20
2017-10-04T07:39:32.785Z,84.00
2017-10-04T07:42:01.020Z,83.30
2017-10-04T07:44:29.308Z,83.70
2017-10-04T07:46:57.620Z,83.50
2017-10-04T07:49:25.869Z,82.90
2017-10-04T07:51:54.120Z,82.10
2017-10-04T07:54:22.738Z,81.50
2017-10-04T07:56:51.101Z,81.50
2017-10-04T07:59:19.340Z,82.00
2017-10-04T08:01:48.345Z,82.50
2017-10-04T08:04:16.610Z,82.40
2017-10-04T08:06:45.840Z,82.20
2017-10-04T08:09:14.085Z,81.80
2017-10-04T08:11:42.349Z,82.40
2017-10-04T08:14:11.390Z,81.70
2017-10-04T08:16:39.651Z,81.70
2017-10-04T08:19:07.958Z,81.40
2017-10-04T08:21:37.098Z,81.20
2017-10-04T08:24:07.042Z,81.70
2017-10-04T08:26:35.657Z,80.90
2017-10-04T08:29:03.884Z,80.70
2017-10-04T08:31:32.921Z,80.00
2017-10-04T08:34:01.196Z,80.00
2017-10-04T08:36:29.472Z,78.80
2017-10-04T08:38:57.819Z,79.90
2017-10-04T08:41:26.815Z,80.10
2017-10-04T08:43:55.090Z,80.10
2017-10-04T08:46:24.119Z,79.00
2017-10-04T08:48:52.359Z,78.90
2017-10-04T08:51:21.397Z,78.90
2017-10-04T08:53:49.674Z,78.90
2017-10-04T08:56:17.910Z,79.10
2017-10-04T08:58:46.155Z,79.10
2017-10-04T09:01:14.423Z,80.20
2017-10-04T09:03:43.353Z,80.50
2017-10-04T09:06:13.404Z,80.40
2017-10-04T09:08:42.180Z,79.90
2017-10-04T09:11:10.445Z,81.50
2017-10-04T09:13:39.486Z,81.00
2017-10-04T09:16:07.725Z,81.00
2017-10-04T09:18:36.025Z,80.90
2017-10-04T09:21:04.334Z,80.30
2017-10-04T09:23:32.563Z,80.50
2017-10-04T09:26:00.825Z,79.40
2017-10-04T09:28:29.161Z,79.10
2017-10-04T09:30:57.400Z,78.30
2017-10-04T09:33:25.648Z,78.30
2017-10-04T09:35:54.679Z,78.00
2017-10-04T09:38:22.944Z,78.00
2017-10-04T09:40:51.951Z,77.40
2017-10-04T09:43:20.196Z,77.40
2017-10-04T09:45:49.204Z,76.90
2017-10-04T09:48:17.451Z,76.90
2017-10-04T09:50:45.716Z,76.60
2017-10-04T09:53:15.078Z,77.40
2017-10-04T09:55:43.321Z,77.40
2017-10-04T09:58:12.363Z,77.50
2017-10-04T10:00:40.600Z,77.30
2017-10-04T10:03:08.935Z,77.50
2017-10-04T10:05:37.207Z,77.90
2017-10-04T10:08:06.275Z,77.40
2017-10-04T10:10:34.529Z,77.50
2017-10-04T10:13:03.541Z,77.50
2017-10-04T10:15:31.810Z,77.50
2017-10-04T10:18:00.048Z,78.70
2017-10-04T10:20:29.075Z,77.70
2017-10-04T10:22:57.351Z,77.70
2017-10-04T10:25:25.782Z,78.40
2017-10-04T10:27:54.039Z,78.60
2017-10-04T10:30:22.306Z,78.60
2017-10-04T10:32:50.587Z,78.70
2017-10-04T10:35:18.866Z,78.30
2017-10-04T10:37:47.120Z,78.40
2017-10-04T10:40:15.420Z,77.40
2017-10-04T10:42:43.707Z,76.90
2017-10-04T10:45:12.054Z,78.10
2017-10-04T10:47:41.121Z,77.30
2017-10-04T10:50:09.352Z,77.20
2017-10-04T10:52:37.599Z,75.60
2017-10-04T10:55:06.639Z,77.00
2017-10-04T10:57:35.065Z,77.00
2017-10-04T11:00:04.105Z,76.50
2017-10-04T11:02:32.378Z,76.40
2017-10-04T11:05:00.644Z,76.90
2017-10-04T11:07:28.909Z,77.10
2017-10-04T11:09:57.926Z,76.00
2017-10-04T11:12:26.226Z,76.00
2017-10-04T11:14:54.475Z,75.90
2017-10-04T11:17:22.753Z,76.90
2017-10-04T11:19:51.001Z,75.40
2017-10-04T11:22:20.032Z,73.80
2017-10-04T11:24:48.322Z,73.80
2017-10-04T11:27:16.544Z,74.30
2017-10-04T11:29:44.838Z,74.70
2017-10-04T11:32:13.853Z,72.50
2017-10-04T11:34:42.301Z,72.50
2017-10-04T11:37:10.647Z,71.50
2017-10-04T11:39:38.875Z,71.00
2017-10-04T11:42:07.199Z,72.10
2017-10-04T11:44:35.451Z,71.20
2017-10-04T11:47:03.764Z,71.80
2017-10-04T11:49:32.007Z,72.30
2017-10-04T11:52:00.276Z,71.70
2017-10-04T11:54:28.517Z,72.80
2017-10-04T11:56:56.766Z,72.10
2017-10-04T11:59:25.920Z,72.30
2017-10-04T12:01:54.174Z,71.70
2017-10-04T12:04:22.446Z,71.70
2017-10-04T12:06:52.058Z,73.00
2017-10-04T12:09:22.076Z,73.30
2017-10-04T12:11:52.011Z,71.60
2017-10-04T12:14:21.818Z,70.10
2017-10-04T12:16:50.077Z,70.10
2017-10-04T12:19:18.318Z,70.10
2017-10-04T12:21:46.590Z,70.30
2017-10-04T12:24:14.876Z,69.90
2017-10-04T12:26:43.175Z,70.00
2017-10-04T12:29:12.914Z,69.40
2017-10-04T12:31:42.018Z,69.30
2017-10-04T12:34:10.402Z,69.00
2017-10-04T12:36:38.661Z,68.60
2017-10-04T12:39:07.693Z,67.00
2017-10-04T12:41:35.972Z,67.50
2017-10-04T12:44:04.261Z,67.70
2017-10-04T12:46:32.499Z,67.30
2017-10-04T12:49:00.776Z,67.30
2017-10-04T12:51:29.098Z,67.90
2017-10-04T12:53:57.366Z,66.00
2017-10-04T12:56:25.636Z,66.70
2017-10-04T12:58:54.759Z,68.10
2017-10-04T13:01:23.155Z,67.90
2017-10-04T13:03:52.234Z,66.70
2017-10-04T13:06:20.516Z,66.70
2017-10-04T13:08:48.770Z,66.50
2017-10-04T13:11:17.970Z,66.10
2017-10-04T13:13:46.221Z,65.40
2017-10-04T13:16:14.506Z,66.00
2017-10-04T13:18:42.752Z,65.20
2017-10-04T13:21:11.807Z,66.40
2017-10-04T13:23:40.043Z,66.30
2017-10-04T13:26:08.321Z,65.50
2017-10-04T13:28:36.624Z,66.80
2017-10-04T13:31:05.652Z,65.90
2017-10-04T13:33:38.105Z,65.10
2017-10-04T13:36:06.368Z,65.10
2017-10-04T13:38:34.614Z,66.00
2017-10-04T13:41:03.666Z,66.50
2017-10-04T13:43:34.252Z,66.50
2017-10-04T13:46:03.532Z,67.60
2017-10-04T13:48:32.554Z,68.30
2017-10-04T13:51:00.827Z,67.80
2017-10-04T13:53:29.501Z,67.50
2017-10-04T13:56:08.103Z,67.50
2017-10-04T13:58:36.479Z,67.80
2017-10-04T14:01:05.548Z,67.80
2017-10-04T14:03:34.738Z,67.80
2017-10-04T14:06:03.055Z,67.60
2017-10-04T14:08:31.345Z,67.90
2017-10-04T14:10:59.623Z,69.10
2017-10-04T14:13:28.657Z,67.40
2017-10-04T14:15:56.905Z,67.00
2017-10-04T14:18:25.405Z,67.30
2017-10-04T14:20:53.735Z,67.10
2017-10-04T14:23:22.017Z,67.00
2017-10-04T14:25:50.316Z,68.30
2017-10-04T14:28:19.345Z,68.80
2017-10-04T14:30:47.631Z,68.80
2017-10-04T14:33:15.960Z,67.00
2017-10-04T14:35:44.231Z,68.80
2017-10-04T14:38:13.875Z,67.90
2017-10-04T14:40:42.110Z,67.90
2017-10-04T14:43:11.160Z,67.10
2017-10-04T14:45:39.583Z,67.10
2017-10-04T14:48:07.829Z,67.80
2017-10-04T14:50:36.136Z,67.30
2017-10-04T14:53:04.401Z,68.40
2017-10-04T14:55:32.683Z,69.20
2017-10-04T14:58:00.957Z,69.40
2017-10-04T15:00:30.174Z,70.40
2017-10-04T15:02:59.209Z,70.40
2017-10-04T15:05:28.831Z,70.30
2017-10-04T15:07:57.062Z,70.00
2017-10-04T15:10:26.080Z,70.90
2017-10-04T15:12:54.367Z,70.80
2017-10-04T15:15:22.755Z,70.10
2017-10-04T15:17:51.034Z,70.40
2017-10-04T15:20:19.316Z,70.50
2017-10-04T15:22:48.045Z,70.30
2017-10-04T15:25:16.293Z,70.20
2017-10-04T15:27:45.376Z,69.90
2017-10-04T15:30:13.642Z,70.60
2017-10-04T15:32:41.913Z,70.70
2017-10-04T15:35:10.457Z,70.60
2017-10-04T15:37:38.748Z,70.10
2017-10-04T15:40:07.012Z,69.80
2017-10-04T15:42:36.075Z,71.10
2017-10-04T15:45:06.076Z,70.90
2017-10-04T15:47:34.333Z,70.10
2017-10-04T15:50:04.329Z,71.20
2017-10-04T15:52:33.396Z,70.50
2017-10-04T15:55:01.654Z,70.50
2017-10-04T15:57:29.916Z,71.10
2017-10-04T15:59:58.896Z,70.50
2017-10-04T16:02:27.171Z,70.40
2017-10-04T16:04:55.512Z,70.40
2017-10-04T16:07:23.780Z,70.60
2017-10-04T16:09:52.106Z,71.00
2017-10-04T16:12:21.150Z,71.10
2017-10-04T16:14:49.375Z,71.10
2017-10-04T16:17:17.655Z,71.10
2017-10-04T16:19:46.650Z,71.20
2017-10-04T16:22:14.928Z,70.70
2017-10-04T16:24:44.027Z,71.30
2017-10-04T16:27:12.323Z,71.30
2017-10-04T16:29:40.591Z,71.60
2017-10-04T16:32:09.008Z,71.30
2017-10-04T16:34:37.294Z,71.40
2017-10-04T16:37:05.557Z,71.70
2017-10-04T16:39:33.860Z,71.60
2017-10-04T16:42:02.147Z,71.60
2017-10-04T16:44:30.443Z,71.50
2017-10-04T16:46:59.477Z,72.30
2017-10-04T16:49:27.868Z,72.20
2017-10-04T16:51:56.130Z,72.30
2017-10-04T16:54:24.427Z,72.20
2017-10-04T16:56:52.688Z,72.00
2017-10-04T16:59:20.978Z,71.80
2017-10-04T17:01:49.256Z,72.00
2017-10-04T17:04:17.477Z,72.10
2017-10-04T17:06:46.524Z,73.10
2017-10-04T17:09:15.270Z,73.10
2017-10-04T17:11:43.500Z,73.60
2017-10-04T17:14:11.803Z,73.50
2017-10-04T17:16:40.837Z,73.60
2017-10-04T17:19:09.102Z,73.30
2017-10-04T17:21:38.143Z,73.60
2017-10-04T17:24:06.443Z,73.60
2017-10-04T17:26:35.445Z,74.20
2017-10-04T17:29:03.725Z,73.90
2017-10-04T17:31:32.008Z,73.50
2017-10-04T17:34:01.117Z,74.00
2017-10-04T17:36:30.180Z,73.90
2017-10-04T17:38:58.467Z,73.80
2017-10-04T17:41:26.717Z,73.50
2017-10-04T17:43:54.960Z,73.40
2017-10-04T17:46:23.569Z,73.90
2017-10-04T17:48:51.873Z,74.30
2017-10-04T17:51:20.115Z,74.60
2017-10-04T17:53:48.397Z,74.60
2017-10-04T17:56:16.714Z,74.10
2017-10-04T17:58:44.965Z,74.70
2017-10-04T18:01:14.147Z,74.80
2017-10-04T18:03:42.430Z,74.60
2017-10-04T18:06:10.695Z,74.80
2017-10-04T18:08:39.036Z,74.80
2017-10-04T18:11:08.477Z,75.50
2017-10-04T18:13:36.746Z,75.00
2017-10-04T18:16:05.797Z,74.90
2017-10-04T18:18:34.040Z,75.20
2017-10-04T18:21:02.341Z,75.60
2017-10-04T18:23:30.662Z,75.60
2017-10-04T18:26:00.033Z,75.80
2017-10-04T18:28:28.849Z,76.20
2017-10-04T18:30:57.302Z,75.80
2017-10-04T18:33:26.472Z,75.30
2017-10-04T18:35:54.789Z,75.20
2017-10-04T18:38:23.424Z,75.60
2017-10-04T18:40:51.722Z,76.30
2017-10-04T18:43:20.084Z,76.30
2017-10-04T18:45:49.989Z,76.00
2017-10-04T18:48:19.468Z,77.20
2017-10-04T18:50:48.803Z,76.80
2017-10-04T18:53:18.052Z,76.80
2017-10-04T18:55:47.137Z,76.80
2017-10-04T18:58:15.480Z,76.70
2017-10-04T19:00:43.785Z,76.40
2017-10-04T19:03:12.089Z,76.20
2017-10-04T19:05:41.977Z,76.10
2017-10-04T19:08:10.284Z,76.10
2017-10-04T19:10:38.552Z,76.30
2017-10-04T19:13:08.150Z,77.00
2017-10-04T19:15:36.439Z,76.40
2017-10-04T19:18:04.694Z,76.50
2017-10-04T19:20:33.809Z,76.80
2017-10-04T19:23:02.265Z,76.70
2017-10-04T19:25:30.551Z,76.70
2017-10-04T19:27:58.814Z,76.70
2017-10-04T19:30:28.385Z,77.30
2017-10-04T19:32:56.745Z,77.30
2017-10-04T19:35:25.064Z,77.30
2017-10-04T19:37:53.350Z,77.30
2017-10-04T19:40:21.818Z,77.40
2017-10-04T19:42:50.081Z,77.80
2017-10-04T19:45:18.462Z,77.70
2017-10-04T19:47:47.534Z,78.00
2017-10-04T19:50:15.801Z,78.00
2017-10-04T19:52:44.075Z,77.90
2017-10-04T19:55:12.378Z,78.00
2017-10-04T19:57:40.677Z,78.00
2017-10-04T20:00:09.681Z,77.80
2017-10-04T20:02:37.996Z,77.80
2017-10-04T20:05:06.255Z,77.70
2017-10-04T20:07:34.547Z,77.60
2017-10-04T20:10:02.862Z,77.90
2017-10-04T20:12:31.921Z,78.20
2017-10-04T20:15:01.136Z,78.20
2017-10-04T20:17:30.146Z,78.70
2017-10-04T20:19:58.428Z,78.70
2017-10-04T20:22:26.834Z,78.60
2017-10-04T20:24:55.469Z,78.50
2017-10-04T20:27:23.698Z,78.20
2017-10-04T20:29:52.012Z,78.00
2017-10-04T20:32:20.332Z,77.90
2017-10-04T20:34:48.592Z,77.70
2017-10-04T20:37:16.917Z,77.60
2017-10-04T20:39:45.225Z,77.40
2017-10-04T20:42:13.486Z,77.90
2017-10-04T20:44:41.769Z,77.60
2017-10-04T20:47:10.070Z,78.00
2017-10-04T20:49:38.411Z,78.30
2017-10-04T20:52:06.703Z,78.60
2017-10-04T20:54:34.981Z,79.00
2017-10-04T20:57:03.270Z,78.80
2017-10-04T20:59:31.604Z,78.60
2017-10-04T21:01:59.861Z,78.90
2017-10-04T21:04:29.216Z,78.50
2017-10-04T21:06:57.488Z,78.50
2017-10-04T21:09:25.774Z,78.20
2017-10-04T21:11:54.020Z,78.40
2017-10-04T21:14:22.579Z,78.70
2017-10-04T21:16:51.600Z,78.50
2017-10-04T21:19:19.897Z,78.50
2017-10-04T21:21:48.190Z,79.20
2017-10-04T21:24:16.470Z,78.30
2017-10-04T21:26:44.715Z,78.40
2017-10-04T21:29:12.981Z,78.60
2017-10-04T21:31:41.257Z,78.60
2017-10-04T21:34:09.523Z,78.40
2017-10-04T21:36:37.784Z,78.80
2017-10-04T21:39:07.147Z,79.60
2017-10-04T21:41:35.552Z,79.60
2017-10-04T21:44:03.836Z,79.60
2017-10-04T21:46:32.119Z,79.80
2017-10-04T21:49:00.410Z,79.60
2017-10-04T21:51:29.443Z,79.60
2017-10-04T21:53:57.719Z,79.50
2017-10-04T21:56:25.983Z,79.50
2017-10-04T21:58:54.234Z,79.60
2017-10-04T22:01:23.290Z,78.50
2017-10-04T22:03:51.543Z,78.40
2017-10-04T22:06:19.814Z,78.70
2017-10-04T22:08:48.093Z,78.80
2017-10-04T22:11:16.375Z,78.70
2017-10-04T22:13:45.321Z,78.50
2017-10-04T22:16:14.368Z,78.80
2017-10-04T22:18:42.618Z,78.80
2017-10-04T22:21:11.679Z,78.60
2017-10-04T22:23:39.909Z,79.20
2017-10-04T22:26:08.185Z,78.70
2017-10-04T22:28:36.446Z,79.60
2017-10-04T22:31:04.690Z,79.50
2017-10-04T22:33:33.707Z,81.10
2017-10-04T22:36:01.970Z,80.80
2017-10-04T22:38:31.077Z,81.60
2017-10-04T22:41:00.186Z,81.90
2017-10-04T22:43:28.471Z,81.80
2017-10-04T22:45:56.724Z,81.90
2017-10-04T22:48:25.749Z,82.80
2017-10-04T22:50:54.022Z,82.70
2017-10-04T22:53:23.046Z,82.80
2017-10-04T22:55:51.318Z,82.80
2017-10-04T22:58:19.597Z,83.20
2017-10-04T23:00:47.904Z,83.40
2017-10-04T23:03:16.174Z,84.30
2017-10-04T23:05:44.439Z,84.00
2017-10-04T23:08:12.746Z,84.20
2017-10-04T23:10:41.244Z,84.60
2017-10-04T23:13:10.304Z,84.70
2017-10-04T23:15:38.564Z,84.70
2017-10-04T23:18:06.820Z,84.20
2017-10-04T23:20:35.086Z,84.90
2017-10-04T23:23:03.342Z,84.70
2017-10-04T23:25:32.401Z,86.50
2017-10-04T23:28:00.710Z,86.50
2017-10-04T23:30:29.741Z,86.90
2017-10-04T23:32:58.012Z,86.90
2017-10-04T23:35:26.273Z,87.50
2017-10-04T23:37:55.316Z,87.60
2017-10-04T23:40:23.594Z,87.50
2017-10-04T23:42:51.834Z,87.80
2017-10-04T23:45:20.098Z,87.40
2017-10-04T23:47:48.395Z,87.90
2017-10-04T23:50:16.652Z,88.20
2017-10-04T23:52:45.684Z,88.90
2017-10-04T23:55:13.924Z,88.90
2017-10-04T23:57:42.986Z,88.10
